Meteo Giornale » Osservazioni meteo Italia » Reggio Calabria

ore: 01:50 - Osservazioni Meteo Reggio Calabria
Lat. 38° 4' N Lon. 15° 39' E Alt. 11 metri s.l.m.

sereno Europe/Rome

32 °C

Sereno

Temp. 24 Ore

29 °C

39 °C

Nord

20.3 Km/h

Dew point 13 °C

Umidità 31 %

Visibilità  10 Km

Il sole sorge alle ore 05:59

Il sole tramonta alle ore 20:07

Data e Ora Cielo e Fenomeni T °C DP °C Um. % Pres. hPa Vis. km Vento km/h
Oggi h: 01:50 sereno Sereno 32 13 31 1012 10 N 20.3
Oggi h: 01:20 sereno Sereno 31 14 35 1012 10 N 18.5
Oggi h: 00:50 sereno Sereno 31 15 37 1012 10 N 20.3
Oggi h: 00:20 sereno Sereno 31 16 40 1012 10 N 22.2
Ieri h: 23:50 sereno Sereno 31 16 40 1013 10 N 20.3
Ieri h: 23:20 sereno Sereno 32 14 33 1013 10 N 16.7
Ieri h: 22:50 sereno Sereno 32 15 35 1013 10 N/NE 14.8
Ieri h: 22:20 sereno Sereno 32 16 38 1013 10 N/NE 20.3
Ieri h: 21:50 sereno Sereno 32 17 40 1013 10 N 13
Ieri h: 21:20 sereno Sereno 32 19 46 1013 10 N 18.5
Ieri h: 20:20 sereno Sereno 33 17 38 1012 10 N/NE 16.7
Ieri h: 19:50 sereno Sereno 33 11 26 1012 10 N 11.1
Ieri h: 19:20 sereno Sereno 32 14 33 1012 10 N 3.7
Ieri h: 18:50 sereno Sereno 32 15 35 1011 10 N 3.7
Ieri h: 18:20 sereno Sereno 31 20 52 1011 10 S 9.3
Ieri h: 17:50 sereno Sereno 32 21 52 1011 10 S/SO 14.8
Ieri h: 17:20 sereno Sereno 32 20 49 1011 10 S/SO 16.7
Ieri h: 16:50 sereno Sereno 33 20 46 1011 10 S/SO 20.3
Ieri h: 15:50 sereno Sereno 32 19 46 1011 10 SO 20.3
Ieri h: 15:20 sereno Sereno 34 19 41 1011 10 S 7.4
Ieri h: 14:50 poco_nuvoloso Poco Nuvoloso 34 16 34 1011 10 SO 9.3
Ieri h: 14:20 sereno Sereno 33 18 41 1011 10 O/SO 9.3
Ieri h: 13:50 nuvoloso Nuvoloso 34 19 41 1012 10 SO 14.8
Ieri h: 13:20 sereno Sereno 33 20 46 1012 10 S/SO 18.5
Ieri h: 12:50 poco_nuvoloso Poco Nuvoloso 39 11 18 1012 10 N 9.3
Ieri h: 12:20 sereno Sereno 38 11 19 1012 10 N 18.5
Ieri h: 11:50 poco_nuvoloso Poco Nuvoloso 38 12 21 1012 10 N 22.2
Ieri h: 11:20 sereno Sereno 38 12 21 1012 10 N 20.3
Ieri h: 10:50 sereno Sereno 38 12 21 1012 10 N 20.3
Ieri h: 10:20 sereno Sereno 37 11 20 1012 10 N 20.3
Ieri h: 09:50 sereno Sereno 36 10 20 1012 10 N 20.3
Ieri h: 09:20 sereno Sereno 36 10 20 1012 10 N 16.7
Ieri h: 08:50 poco_nuvoloso Poco Nuvoloso 35 10 21 1011 10 N/NO 20.3
Ieri h: 08:20 sereno Sereno 35 10 21 1011 10 N 20.3
Ieri h: 07:50 sereno Sereno 34 10 23 1011 10 N 16.7
Ieri h: 07:20 sereno Sereno 34 10 23 1011 10 N 14.8
Ieri h: 06:50 sereno Sereno 32 10 25 1011 10 N 16.7
Ieri h: 05:50 sereno Sereno 30 15 40 1011 10 N 25.9
Ieri h: 05:20 sereno Sereno 29 13 37 1010 10 N 22.2
Ieri h: 04:50 sereno Sereno 31 5 19 1010 10 N 18.5
Ieri h: 04:20 sereno Sereno 30 10 28 1011 10 N 24
Ieri h: 03:50 sereno Sereno 32 3 15 1011 10 N 13
Ieri h: 03:20 sereno Sereno 33 7 19 1011 10 N 20.3
Ieri h: 02:50 sereno Sereno 33 8 21 1011 10 N 25.9